createdAt,value
2022-08-19T00:02:15.736Z,2.20
2022-08-19T00:04:43.537Z,2.26
2022-08-19T00:07:11.200Z,1.97
2022-08-19T00:09:38.847Z,1.96
2022-08-19T00:12:06.851Z,2.24
2022-08-19T00:14:35.877Z,2.22
2022-08-19T00:17:04.759Z,2.35
2022-08-19T00:19:32.892Z,2.24
2022-08-19T00:22:00.570Z,1.84
2022-08-19T00:24:28.205Z,1.53
2022-08-19T00:26:56.798Z,1.55
2022-08-19T00:29:25.912Z,1.51
2022-08-19T00:31:55.584Z,1.41
2022-08-19T00:34:23.878Z,1.65
2022-08-19T00:36:51.569Z,1.54
2022-08-19T00:39:19.657Z,1.40
2022-08-19T00:41:50.153Z,1.66
2022-08-19T00:44:22.633Z,1.36
2022-08-19T00:46:58.834Z,1.19
2022-08-19T00:49:31.541Z,1.14
2022-08-19T00:52:07.434Z,1.09
2022-08-19T00:54:37.910Z,1.04
2022-08-19T00:57:10.086Z,1.17
2022-08-19T00:59:53.530Z,1.26
2022-08-19T01:02:32.652Z,1.41
2022-08-19T01:05:02.324Z,1.50
2022-08-19T01:07:37.972Z,1.19
2022-08-19T01:10:09.046Z,1.34
2022-08-19T01:12:37.920Z,1.51
2022-08-19T01:15:07.754Z,1.72
2022-08-19T01:17:40.567Z,1.32
2022-08-19T01:20:12.776Z,1.36
2022-08-19T01:22:46.971Z,1.25
2022-08-19T01:25:16.340Z,1.20
2022-08-19T01:27:47.867Z,1.45
2022-08-19T01:30:21.477Z,1.32
2022-08-19T01:32:49.585Z,1.28
2022-08-19T01:35:18.914Z,1.34
2022-08-19T01:37:51.803Z,1.33
2022-08-19T01:40:21.660Z,1.46
2022-08-19T01:42:50.156Z,1.64
2022-08-19T01:45:18.608Z,1.36
2022-08-19T01:47:52.710Z,1.25
2022-08-19T01:50:31.223Z,1.66
2022-08-19T01:53:06.415Z,1.56
2022-08-19T01:55:40.760Z,1.47
2022-08-19T01:58:15.368Z,1.63
2022-08-19T02:00:43.571Z,1.52
2022-08-19T02:03:11.369Z,1.85
2022-08-19T02:05:39.466Z,1.85
2022-08-19T02:08:09.408Z,1.53
2022-08-19T02:10:41.608Z,1.47
2022-08-19T02:13:09.973Z,1.65
2022-08-19T02:15:38.631Z,1.55
2022-08-19T02:18:06.852Z,1.60
2022-08-19T02:20:34.505Z,1.37
2022-08-19T02:23:02.693Z,1.65
2022-08-19T02:25:31.779Z,1.46
2022-08-19T02:27:59.531Z,1.87
2022-08-19T02:30:27.525Z,1.70
2022-08-19T02:32:55.452Z,1.69
2022-08-19T02:35:23.237Z,1.64
2022-08-19T02:37:50.906Z,1.52
2022-08-19T02:40:18.738Z,1.68
2022-08-19T02:42:47.830Z,1.98
2022-08-19T02:45:15.534Z,1.80
2022-08-19T02:47:43.175Z,1.83
2022-08-19T02:50:10.900Z,1.58
2022-08-19T02:52:38.525Z,1.88
2022-08-19T02:55:07.544Z,2.02
2022-08-19T02:57:35.186Z,1.41
2022-08-19T03:00:07.367Z,1.49
2022-08-19T03:02:35.047Z,1.41
2022-08-19T03:05:05.371Z,1.50
2022-08-19T03:07:33.109Z,1.46
2022-08-19T03:10:00.804Z,1.29
2022-08-19T03:12:28.427Z,1.69
2022-08-19T03:14:56.105Z,1.32
2022-08-19T03:17:25.084Z,1.75
2022-08-19T03:19:52.701Z,1.54
2022-08-19T03:22:20.345Z,1.84
2022-08-19T03:24:48.483Z,1.86
2022-08-19T03:27:16.111Z,1.74
2022-08-19T03:29:44.101Z,2.22
2022-08-19T03:32:31.734Z,1.83
2022-08-19T03:35:00.967Z,1.79
2022-08-19T03:37:28.737Z,1.87
2022-08-19T03:39:56.451Z,2.27
2022-08-19T03:42:38.464Z,2.24
2022-08-19T03:45:11.895Z,2.36
2022-08-19T03:47:39.592Z,2.25
2022-08-19T03:50:09.511Z,2.15
2022-08-19T03:52:37.390Z,2.20
2022-08-19T03:55:05.994Z,1.95
2022-08-19T03:57:34.335Z,1.99
2022-08-19T04:00:03.768Z,1.99
2022-08-19T04:02:41.553Z,1.91
2022-08-19T04:05:11.075Z,1.85
2022-08-19T04:07:38.752Z,1.77
2022-08-19T04:10:06.712Z,1.78
2022-08-19T04:12:38.274Z,1.71
2022-08-19T04:15:06.812Z,1.73
2022-08-19T04:17:34.430Z,1.59
2022-08-19T04:20:02.107Z,1.57
2022-08-19T04:22:36.206Z,2.16
2022-08-19T04:25:04.586Z,1.98
2022-08-19T04:27:32.229Z,1.80
2022-08-19T04:29:59.913Z,1.59
2022-08-19T04:32:27.507Z,1.83
2022-08-19T04:35:02.751Z,2.02
2022-08-19T04:37:44.134Z,1.93
2022-08-19T04:40:12.616Z,1.94
2022-08-19T04:42:40.373Z,1.84
2022-08-19T04:45:12.495Z,1.70
2022-08-19T04:47:47.949Z,1.58
2022-08-19T04:50:26.746Z,1.56
2022-08-19T04:52:55.867Z,1.90
2022-08-19T04:55:24.239Z,1.33
2022-08-19T04:57:52.017Z,1.75
2022-08-19T05:00:19.657Z,1.42
2022-08-19T05:02:47.330Z,1.24
2022-08-19T05:05:15.216Z,1.44
2022-08-19T05:07:42.840Z,0.90
2022-08-19T05:10:12.803Z,1.28
2022-08-19T05:12:40.556Z,1.46
2022-08-19T05:15:09.586Z,2.48
2022-08-19T05:17:39.044Z,1.29
2022-08-19T05:20:08.836Z,1.14
2022-08-19T05:22:36.570Z,2.32
2022-08-19T05:25:13.107Z,1.77
2022-08-19T05:27:43.309Z,1.73
2022-08-19T05:30:12.583Z,5.86
2022-08-19T05:32:41.342Z,1.42
2022-08-19T05:35:09.974Z,1.74
2022-08-19T05:37:38.019Z,1.65
2022-08-19T05:40:06.550Z,1.86
2022-08-19T05:42:34.235Z,2.49
2022-08-19T05:45:04.244Z,2.29
2022-08-19T05:47:32.244Z,1.42
2022-08-19T05:50:00.067Z,1.38
2022-08-19T05:52:27.641Z,1.54
2022-08-19T05:54:55.337Z,1.50
2022-08-19T05:57:24.155Z,1.49
2022-08-19T05:59:57.698Z,1.70
2022-08-19T06:02:27.172Z,3.08
2022-08-19T06:04:54.895Z,1.77
2022-08-19T06:07:25.696Z,1.76
2022-08-19T06:10:00.280Z,1.74
2022-08-19T06:12:30.628Z,1.58
2022-08-19T06:15:01.252Z,1.66
2022-08-19T06:17:32.237Z,1.97
2022-08-19T06:20:00.571Z,1.93
2022-08-19T06:22:29.025Z,6.61
2022-08-19T06:24:57.308Z,2.34
2022-08-19T06:27:24.996Z,3.34
2022-08-19T06:29:52.921Z,2.07
2022-08-19T06:32:22.826Z,2.42
2022-08-19T06:34:53.220Z,2.38
2022-08-19T06:37:22.492Z,2.44
2022-08-19T06:39:51.780Z,1.83
2022-08-19T06:42:19.514Z,1.61
2022-08-19T06:44:49.574Z,1.42
2022-08-19T06:47:28.829Z,2.04
2022-08-19T06:50:03.138Z,3.47
2022-08-19T06:52:34.216Z,3.31
2022-08-19T06:55:06.114Z,1.99
2022-08-19T06:57:34.591Z,3.04
2022-08-19T07:00:02.736Z,2.01
2022-08-19T07:02:31.574Z,2.94
2022-08-19T07:05:00.615Z,5.82
2022-08-19T07:07:28.461Z,2.41
2022-08-19T07:09:59.045Z,2.10
2022-08-19T07:12:30.685Z,2.35
2022-08-19T07:15:02.177Z,2.99
2022-08-19T07:17:36.099Z,15.38
2022-08-19T07:20:09.976Z,3.57
2022-08-19T07:22:38.393Z,3.60
2022-08-19T07:25:09.192Z,2.33
2022-08-19T07:27:37.987Z,2.70
2022-08-19T07:30:11.617Z,2.91
2022-08-19T07:32:40.208Z,4.87
2022-08-19T07:35:13.430Z,4.57
2022-08-19T07:37:41.087Z,4.19
2022-08-19T07:40:09.782Z,4.46
2022-08-19T07:42:37.703Z,6.48
2022-08-19T07:45:07.731Z,7.82
2022-08-19T07:47:48.139Z,5.34
2022-08-19T07:50:21.442Z,3.21
2022-08-19T07:52:54.197Z,5.36
2022-08-19T07:55:41.182Z,4.83
2022-08-19T07:58:17.057Z,2.58
2022-08-19T08:00:47.732Z,3.53
2022-08-19T08:03:20.150Z,12.48
2022-08-19T08:05:49.541Z,27.17
2022-08-19T08:08:17.314Z,38.77
2022-08-19T08:10:45.073Z,146.91
2022-08-19T08:13:29.867Z,43.95
2022-08-19T08:18:50.482Z,131691.34
2022-08-19T08:21:20.034Z,131586.28
2022-08-19T08:23:48.524Z,131565.47
2022-08-19T08:26:16.497Z,131584.41
2022-08-19T08:28:48.057Z,131540.02
2022-08-19T08:31:17.897Z,131591.33
2022-08-19T08:33:47.307Z,131388.84
2022-08-19T08:36:15.644Z,131311.11
2022-08-19T08:38:47.257Z,131474.59
2022-08-19T08:41:27.776Z,130978.65
2022-08-19T08:43:57.557Z,130601.59
2022-08-19T08:46:38.879Z,83327.98
2022-08-19T08:49:17.625Z,3.35
2022-08-19T08:51:59.793Z,2.83
2022-08-19T08:54:36.246Z,2.67
2022-08-19T08:57:12.164Z,3.84
2022-08-19T08:59:44.129Z,2.66
2022-08-19T09:02:11.835Z,2.71
2022-08-19T09:04:39.970Z,2.54
2022-08-19T09:07:34.985Z,2.51
2022-08-19T09:10:30.787Z,2.72
2022-08-19T09:13:11.465Z,2.43
2022-08-19T09:15:46.013Z,2.80
2022-08-19T09:18:19.217Z,2.36
2022-08-19T09:20:47.551Z,2.21
2022-08-19T09:23:15.687Z,2.38
2022-08-19T09:25:44.925Z,2.62
2022-08-19T09:28:22.317Z,2.40
2022-08-19T09:30:53.186Z,2.70
2022-08-19T09:33:21.023Z,2.48
2022-08-19T09:35:53.422Z,2.57
2022-08-19T09:38:21.598Z,2.47
2022-08-19T09:40:52.409Z,2.30
2022-08-19T09:43:33.684Z,5.37
2022-08-19T09:46:09.749Z,3.31
2022-08-19T09:48:38.036Z,2.23
2022-08-19T09:51:08.639Z,2.16
2022-08-19T09:53:40.126Z,2.40
2022-08-19T09:56:09.630Z,1.93
2022-08-19T09:58:38.029Z,2.64
2022-08-19T10:01:08.056Z,2.95
2022-08-19T10:03:37.483Z,3.28
2022-08-19T10:06:15.077Z,3.77
2022-08-19T10:08:49.891Z,3.32
2022-08-19T10:11:27.803Z,3.00
2022-08-19T10:14:04.691Z,2.69
2022-08-19T10:16:33.107Z,2.31
2022-08-19T10:19:07.321Z,2.24
2022-08-19T10:21:35.017Z,2.96
2022-08-19T10:24:05.526Z,2.23
2022-08-19T10:26:37.280Z,4.50
2022-08-19T10:29:06.509Z,9.73
2022-08-19T10:32:00.878Z,2.58
2022-08-19T10:34:27.826Z,2.12
2022-08-19T10:37:00.917Z,2.18
2022-08-19T10:39:31.331Z,2.64
2022-08-19T10:42:06.122Z,3.13
2022-08-19T10:44:34.657Z,4.89
2022-08-19T10:47:02.857Z,4.80
2022-08-19T10:49:30.800Z,23.87
2022-08-19T10:51:58.715Z,25.76
2022-08-19T10:54:33.175Z,1747.99
2022-08-19T10:57:03.738Z,23.20
2022-08-19T10:59:35.788Z,2.71
2022-08-19T11:02:06.505Z,2.59
2022-08-19T11:04:34.561Z,2.72
2022-08-19T11:07:04.732Z,2639.87
2022-08-19T11:09:38.446Z,4800.91
2022-08-19T11:12:08.765Z,126926.98
2022-08-19T11:14:37.148Z,131090.14
2022-08-19T11:17:06.367Z,132246.34
2022-08-19T11:19:35.491Z,132494.47
2022-08-19T11:22:03.663Z,132581.25
2022-08-19T11:24:32.296Z,133002.28
2022-08-19T11:27:07.924Z,133368.53
2022-08-19T11:29:39.438Z,133075.13
2022-08-19T11:32:10.780Z,132461.16
2022-08-19T11:34:38.689Z,132691.36
2022-08-19T11:37:08.456Z,132726.69
2022-08-19T11:39:38.409Z,132548.03
2022-08-19T11:42:12.575Z,132360.39
2022-08-19T11:44:40.270Z,130167.30
2022-08-19T11:47:09.098Z,130114.68
2022-08-19T11:49:37.106Z,71420.39
2022-08-19T11:52:04.840Z,4.10
2022-08-19T11:54:32.479Z,3.68
2022-08-19T11:57:00.201Z,2.95
2022-08-19T11:59:31.840Z,2.82
2022-08-19T12:02:02.584Z,69.31
2022-08-19T12:04:30.235Z,31.41
2022-08-19T12:06:57.899Z,40.27
2022-08-19T12:09:25.647Z,8562.50
2022-08-19T12:11:53.356Z,54733.46
2022-08-19T12:14:21.059Z,11384.02
2022-08-19T12:16:51.577Z,4.57
2022-08-19T12:19:22.365Z,9.56
2022-08-19T12:21:51.655Z,73.76
2022-08-19T12:24:19.427Z,95.12
2022-08-19T12:26:53.247Z,209.53
2022-08-19T12:29:23.861Z,67411.20
2022-08-19T12:31:53.380Z,127249.38
2022-08-19T12:34:21.236Z,130083.13
2022-08-19T12:36:49.084Z,132970.95
2022-08-19T12:39:16.826Z,132529.91
2022-08-19T12:41:51.257Z,133470.05
2022-08-19T12:44:20.892Z,134245.47
2022-08-19T12:46:58.879Z,133026.88
2022-08-19T12:49:52.796Z,132857.91
2022-08-19T12:52:16.444Z,132496.02
2022-08-19T12:54:44.504Z,132014.53
2022-08-19T12:57:12.514Z,86534.50
2022-08-19T12:59:44.391Z,1059.24
2022-08-19T13:02:13.191Z,577.33
2022-08-19T13:04:40.634Z,308.13
2022-08-19T13:07:32.616Z,101.84
2022-08-19T13:10:00.973Z,10.09
2022-08-19T13:12:28.742Z,78.79
2022-08-19T13:14:56.882Z,9.65
2022-08-19T13:17:24.553Z,349.59
2022-08-19T13:19:52.220Z,405.49
2022-08-19T13:22:20.245Z,554.87
2022-08-19T13:24:49.362Z,18750.46
2022-08-19T13:27:17.088Z,106015.55
2022-08-19T13:29:44.803Z,123579.51
2022-08-19T13:32:13.158Z,124837.43
2022-08-19T13:34:46.481Z,125515.55
2022-08-19T13:37:14.327Z,125776.16
2022-08-19T13:39:42.477Z,125500.73
2022-08-19T13:42:14.046Z,124254.70
2022-08-19T13:44:41.745Z,124224.64
2022-08-19T13:47:09.749Z,114692.33
2022-08-19T13:49:37.462Z,1374.92
2022-08-19T13:52:06.902Z,2.98
2022-08-19T13:54:35.258Z,3.15
2022-08-19T13:57:02.910Z,3.05
2022-08-19T13:59:31.897Z,50302.15
2022-08-19T14:02:00.762Z,124100.73
2022-08-19T14:04:28.764Z,125605.38
2022-08-19T14:06:56.508Z,127469.50
2022-08-19T14:09:24.255Z,129198.07
2022-08-19T14:11:51.977Z,130531.67
2022-08-19T14:14:19.676Z,131268.77
2022-08-19T14:16:49.218Z,132451.22
2022-08-19T14:19:17.327Z,132688.66
2022-08-19T14:21:45.124Z,132516.23
2022-08-19T14:24:12.985Z,131218.59
2022-08-19T14:26:41.670Z,131152.06
2022-08-19T14:29:09.906Z,131668.41
2022-08-19T14:31:37.663Z,133918.02
2022-08-19T14:34:06.775Z,134341.78
2022-08-19T14:36:38.586Z,134696.92
2022-08-19T14:39:07.055Z,133590.58
2022-08-19T14:41:35.202Z,131824.81
2022-08-19T14:44:03.169Z,133607.70
